Saint Elmo, Colorado
Current Conditions -  °F | °C
As of 5:14 PM on Wednesday 26 Nov 2014 (Local Time) from K7BM Reporting Station
Clear Clear  
Wind Chill: 31°   Ceiling: Unl
Heat Index: 39°   Visibility: 10mi
Dew Point: 18°   Wind: 15mph
Humidity: 42%   Direction: 280°W
Pressure: 30.34"   Gusts: 31mph
Location:  38.7194°N, 106.276°W
Report Text: K7BM 270014Z AUTO 28013G27KT 240V310 10SM CLR 04/M08 A3034 RMK AO2
Loading
Personal Weather Stations






























Interactive Weather Map New forecast layout! Learn more

10-Day Weather Forecast

Advertisements
Track Severe Weather on mobile